createdAt,value
2023-01-29T00:01:33.375Z,100656.70
2023-01-29T00:04:00.110Z,100654.30
2023-01-29T00:06:26.821Z,100645.89
2023-01-29T00:08:53.914Z,100638.34
2023-01-29T00:11:21.327Z,100633.55
2023-01-29T00:13:48.152Z,100631.16
2023-01-29T00:16:14.838Z,100629.64
2023-01-29T00:18:41.672Z,100625.86
2023-01-29T00:21:16.079Z,100625.50
2023-01-29T00:23:42.932Z,100625.16
2023-01-29T00:26:09.868Z,100626.27
2023-01-29T00:28:37.541Z,100624.27
2023-01-29T00:31:12.986Z,100626.54
2023-01-29T00:33:40.134Z,100622.77
2023-01-29T00:36:10.121Z,100623.10
2023-01-29T00:38:36.964Z,100621.55
2023-01-29T00:41:33.390Z,100622.06
2023-01-29T00:44:19.091Z,100616.56
2023-01-29T00:46:45.926Z,100617.25
2023-01-29T00:49:12.590Z,100622.94
2023-01-29T00:51:39.513Z,100621.79
2023-01-29T00:54:06.291Z,100616.67
2023-01-29T00:56:34.901Z,100620.35
2023-01-29T00:59:01.606Z,100620.66
2023-01-29T01:02:00.470Z,100620.17
2023-01-29T01:04:27.082Z,100617.02
2023-01-29T01:06:53.804Z,100620.63
2023-01-29T01:09:39.095Z,100617.57
2023-01-29T01:12:05.956Z,100618.45
2023-01-29T01:14:34.396Z,100617.58
2023-01-29T01:17:01.229Z,100620.14
2023-01-29T01:19:28.531Z,100620.81
2023-01-29T01:21:55.685Z,100615.63
2023-01-29T01:24:22.922Z,100617.51
2023-01-29T01:26:53.459Z,100618.02
2023-01-29T01:29:20.971Z,100615.83
2023-01-29T01:31:47.648Z,100623.13
2023-01-29T01:34:14.645Z,100616.66
2023-01-29T01:36:58.901Z,100620.67
2023-01-29T01:39:25.998Z,100613.08
2023-01-29T01:41:55.496Z,100612.88
2023-01-29T01:44:54.109Z,100612.69
2023-01-29T01:47:48.630Z,100616.45
2023-01-29T01:50:31.241Z,100618.84
2023-01-29T01:53:12.713Z,100617.65
2023-01-29T01:55:45.663Z,100612.17
2023-01-29T01:58:17.953Z,100612.30
2023-01-29T02:00:44.656Z,100608.34
2023-01-29T02:03:29.899Z,100604.08
2023-01-29T02:06:18.599Z,100604.25
2023-01-29T02:09:11.124Z,100607.14
2023-01-29T02:11:37.902Z,100611.16
2023-01-29T02:14:05.090Z,100615.66
2023-01-29T02:16:34.769Z,100620.33
2023-01-29T02:19:01.972Z,100625.33
2023-01-29T02:21:48.371Z,100622.58
2023-01-29T02:24:54.595Z,100617.57
2023-01-29T02:27:26.973Z,100615.30
2023-01-29T02:30:03.781Z,100618.95
2023-01-29T02:32:34.363Z,100616.58
2023-01-29T02:35:30.110Z,100615.06
2023-01-29T02:38:17.608Z,100616.13
2023-01-29T02:41:00.121Z,100617.85
2023-01-29T02:43:29.968Z,100614.02
2023-01-29T02:46:02.573Z,100611.75
2023-01-29T02:48:45.309Z,100615.77
2023-01-29T02:51:21.361Z,100614.30
2023-01-29T02:54:02.717Z,100615.73
2023-01-29T02:56:37.024Z,100616.05
2023-01-29T02:59:14.244Z,100615.85
2023-01-29T03:02:00.587Z,100614.06
2023-01-29T03:04:30.315Z,100614.21
2023-01-29T03:07:03.059Z,100610.78
2023-01-29T03:09:34.424Z,100613.20
2023-01-29T03:12:27.865Z,100610.09
2023-01-29T03:15:15.421Z,100614.16
2023-01-29T03:17:55.176Z,100614.42
2023-01-29T03:20:53.360Z,100613.80
2023-01-29T03:23:44.964Z,100610.61
2023-01-29T03:26:33.039Z,100608.04
2023-01-29T03:29:19.161Z,100607.40
2023-01-29T03:32:05.626Z,100608.86
2023-01-29T03:34:51.472Z,100608.20
2023-01-29T03:37:22.367Z,100613.36
2023-01-29T03:39:49.544Z,100612.84
2023-01-29T03:42:42.305Z,100616.19
2023-01-29T03:45:12.172Z,100615.24
2023-01-29T03:48:14.519Z,100613.88
2023-01-29T03:50:46.460Z,100615.95
2023-01-29T03:53:23.731Z,100612.70
2023-01-29T03:56:20.591Z,100611.54
2023-01-29T03:58:56.128Z,100606.55
2023-01-29T04:01:33.199Z,100602.39
2023-01-29T04:04:08.754Z,100601.15
2023-01-29T04:06:37.115Z,100608.52
2023-01-29T04:09:21.547Z,100608.02
2023-01-29T04:11:58.749Z,100610.79
2023-01-29T04:14:25.641Z,100604.09
2023-01-29T04:16:55.531Z,100602.89
2023-01-29T04:19:47.343Z,100600.27
2023-01-29T04:22:25.812Z,100601.31
2023-01-29T04:24:52.426Z,100603.08
2023-01-29T04:27:20.597Z,100603.86
2023-01-29T04:29:54.609Z,100608.23
2023-01-29T04:32:41.112Z,100613.04
2023-01-29T04:35:24.365Z,100616.08
2023-01-29T04:38:06.662Z,100614.31
2023-01-29T04:40:38.948Z,100612.23
2023-01-29T04:43:14.632Z,100612.39
2023-01-29T04:45:53.748Z,100618.44
2023-01-29T04:48:37.559Z,100623.10
2023-01-29T04:51:12.001Z,100627.23
2023-01-29T04:53:52.044Z,100627.77
2023-01-29T04:56:30.016Z,100629.86
2023-01-29T04:59:03.687Z,100627.31
2023-01-29T05:01:32.799Z,100622.88
2023-01-29T05:04:00.809Z,100624.78
2023-01-29T05:06:27.663Z,100627.54
2023-01-29T05:08:54.924Z,100630.83
2023-01-29T05:11:21.819Z,100630.46
2023-01-29T05:13:48.543Z,100629.25
2023-01-29T05:16:23.439Z,100627.35
2023-01-29T05:18:50.274Z,100631.46
2023-01-29T05:21:17.276Z,100626.67
2023-01-29T05:23:52.598Z,100631.50
2023-01-29T05:26:39.243Z,100633.10
2023-01-29T05:29:06.390Z,100629.70
2023-01-29T05:31:33.173Z,100628.57
2023-01-29T05:34:00.252Z,100633.10
2023-01-29T05:36:27.041Z,100632.27
2023-01-29T05:38:53.811Z,100633.67
2023-01-29T05:41:20.528Z,100637.98
2023-01-29T05:43:47.409Z,100636.95
2023-01-29T05:46:14.096Z,100640.05
2023-01-29T05:48:40.703Z,100637.82
2023-01-29T05:51:08.405Z,100637.30
2023-01-29T05:53:35.869Z,100633.68
2023-01-29T05:56:03.519Z,100633.84
2023-01-29T06:06:15.015Z,100626.06
2023-01-29T06:08:43.311Z,100628.66
2023-01-29T06:11:12.666Z,100629.27
2023-01-29T06:13:41.042Z,100627.54
2023-01-29T06:16:09.561Z,100629.12
2023-01-29T06:18:38.436Z,100630.05
2023-01-29T06:21:08.478Z,100626.69
2023-01-29T06:23:36.910Z,100631.43
2023-01-29T06:26:10.805Z,100627.31
2023-01-29T06:28:39.171Z,100629.19
2023-01-29T06:31:24.334Z,100628.29
2023-01-29T06:33:55.457Z,100626.92
2023-01-29T06:36:23.388Z,100628.06
2023-01-29T06:38:51.389Z,100627.31
2023-01-29T06:41:19.814Z,100626.59
2023-01-29T06:43:48.084Z,100631.20
2023-01-29T06:46:16.113Z,100633.60
2023-01-29T06:48:44.117Z,100632.42
2023-01-29T06:51:12.408Z,100633.50
2023-01-29T06:53:40.916Z,100634.61
2023-01-29T06:56:09.455Z,100630.71
2023-01-29T06:58:38.408Z,100622.30
2023-01-29T07:01:08.303Z,100622.64
2023-01-29T07:03:36.644Z,100624.36
2023-01-29T07:06:05.234Z,100625.01
2023-01-29T07:08:37.884Z,100626.02
2023-01-29T07:11:06.616Z,100625.23
2023-01-29T07:13:36.243Z,100622.06
2023-01-29T07:16:04.966Z,100625.69
2023-01-29T07:18:34.513Z,100628.09
2023-01-29T07:21:06.994Z,100628.05
2023-01-29T07:23:35.262Z,100627.52
2023-01-29T07:26:06.385Z,100626.44
2023-01-29T07:28:38.230Z,100621.97
2023-01-29T07:31:06.799Z,100624.41
2023-01-29T07:33:35.289Z,100624.46
2023-01-29T07:36:08.145Z,100627.23
2023-01-29T07:38:36.156Z,100632.43
2023-01-29T07:41:04.485Z,100636.74
2023-01-29T07:43:32.974Z,100640.98
2023-01-29T07:46:04.400Z,100637.81
2023-01-29T07:48:34.195Z,100643.40
2023-01-29T07:51:05.197Z,100643.82
2023-01-29T07:53:33.555Z,100639.13
2023-01-29T07:56:01.483Z,100635.20
2023-01-29T07:58:29.998Z,100636.45
2023-01-29T10:08:28.914Z,100580.77
2023-01-29T10:11:04.696Z,100580.67
2023-01-29T10:13:47.235Z,100582.91
2023-01-29T10:16:49.573Z,100580.36
2023-01-29T10:19:19.873Z,100575.48
2023-01-29T10:21:49.572Z,100577.36
2023-01-29T10:24:31.504Z,100570.94
2023-01-29T10:26:58.248Z,100567.59
2023-01-29T10:29:24.872Z,100571.27
2023-01-29T10:31:56.609Z,100570.36
2023-01-29T10:34:38.161Z,100564.45
2023-01-29T10:37:18.864Z,100563.27
2023-01-29T10:39:45.691Z,100564.75
2023-01-29T10:42:35.998Z,100566.76
2023-01-29T10:45:20.945Z,100558.58
2023-01-29T10:48:07.190Z,100555.81
2023-01-29T10:50:38.754Z,100554.71
2023-01-29T10:53:40.680Z,100551.27
2023-01-29T10:56:23.131Z,100548.43
2023-01-29T10:59:16.935Z,100546.11
2023-01-29T11:01:43.717Z,100542.45
2023-01-29T11:04:10.443Z,100542.96
2023-01-29T11:06:37.150Z,100533.98
2023-01-29T11:09:28.601Z,100533.77
2023-01-29T11:12:01.159Z,100533.55
2023-01-29T11:14:43.294Z,100530.45
2023-01-29T11:17:17.227Z,100529.98
2023-01-29T11:19:45.400Z,100535.65
2023-01-29T11:22:19.666Z,100538.13
2023-01-29T11:24:47.175Z,100538.70
2023-01-29T11:27:25.460Z,100533.27
2023-01-29T11:29:53.095Z,100536.85
2023-01-29T11:32:28.063Z,100535.01
2023-01-29T11:34:56.300Z,100536.84
2023-01-29T11:37:23.254Z,100539.33
2023-01-29T11:39:50.869Z,100540.77
2023-01-29T11:42:19.485Z,100542.23
2023-01-29T11:44:46.335Z,100546.58
2023-01-29T11:47:19.637Z,100544.52
2023-01-29T11:49:48.736Z,100542.45
2023-01-29T11:52:17.230Z,100542.91
2023-01-29T11:54:45.072Z,100547.11
2023-01-29T11:57:32.172Z,100547.52
2023-01-29T12:00:22.015Z,100545.52
2023-01-29T12:02:56.248Z,100546.77
2023-01-29T12:05:24.113Z,100549.36
2023-01-29T12:07:53.160Z,100548.50
2023-01-29T12:10:36.372Z,100554.20
2023-01-29T12:13:11.440Z,100550.41
2023-01-29T12:15:39.607Z,100552.75
2023-01-29T12:18:30.598Z,100552.99
2023-01-29T12:21:05.586Z,100556.81
2023-01-29T12:23:36.190Z,100553.88
2023-01-29T12:26:13.139Z,100558.91
2023-01-29T12:28:51.972Z,100562.95
2023-01-29T12:31:40.928Z,100563.79
2023-01-29T12:34:16.587Z,100565.30
2023-01-29T12:36:52.820Z,100562.10
2023-01-29T12:39:19.759Z,100558.02
2023-01-29T12:41:53.176Z,100559.36
2023-01-29T12:44:28.949Z,100558.65
2023-01-29T12:46:57.725Z,100556.40
2023-01-29T12:49:27.929Z,100557.45
2023-01-29T12:52:04.021Z,100558.67
2023-01-29T12:54:34.611Z,100559.59
2023-01-29T12:57:03.010Z,100559.76
2023-01-29T12:59:32.849Z,100561.18
2023-01-29T13:02:04.545Z,100559.01
2023-01-29T13:04:45.026Z,100563.30
2023-01-29T13:07:14.620Z,100569.00
2023-01-29T13:09:43.468Z,100569.55
2023-01-29T13:12:13.211Z,100575.61
2023-01-29T13:14:59.875Z,100580.07
2023-01-29T13:17:36.160Z,100576.09
2023-01-29T13:20:17.246Z,100579.55
2023-01-29T13:22:44.385Z,100584.01
2023-01-29T13:25:18.457Z,100589.29
2023-01-29T13:27:47.107Z,100594.35
2023-01-29T13:30:27.936Z,100590.68
2023-01-29T13:32:55.026Z,100591.73
2023-01-29T13:35:42.319Z,100589.54
2023-01-29T13:38:38.255Z,100588.06
2023-01-29T13:41:06.069Z,100590.63
2023-01-29T13:43:35.371Z,100593.33
2023-01-29T13:46:08.075Z,100594.04
2023-01-29T13:48:36.371Z,100591.89
2023-01-29T13:51:03.921Z,100591.24
2023-01-29T13:53:36.014Z,100589.00
2023-01-29T13:56:42.777Z,100590.05
2023-01-29T13:59:21.443Z,100594.86
2023-01-29T14:01:48.257Z,100596.09
2023-01-29T14:04:24.959Z,100594.23
2023-01-29T18:12:44.235Z,100660.59
2023-01-29T18:15:11.773Z,100662.88
2023-01-29T18:17:39.122Z,100662.88
2023-01-29T18:20:16.276Z,100667.03
2023-01-29T18:22:43.618Z,100668.23
2023-01-29T18:25:11.251Z,100669.41
2023-01-29T18:27:38.374Z,100669.74
2023-01-29T18:30:05.745Z,100665.46
2023-01-29T18:32:32.634Z,100667.75
2023-01-29T18:34:59.434Z,100670.39
2023-01-29T18:37:26.027Z,100674.91
2023-01-29T18:39:53.393Z,100677.19
2023-01-29T18:42:20.006Z,100679.12
2023-01-29T18:44:46.841Z,100680.54
2023-01-29T18:47:13.738Z,100683.14
2023-01-29T18:49:40.555Z,100686.80
2023-01-29T18:52:07.438Z,100687.86
2023-01-29T18:54:35.692Z,100686.15
2023-01-29T18:57:13.827Z,100685.46
2023-01-29T18:59:49.260Z,100682.70
2023-01-29T19:02:16.679Z,100681.99
2023-01-29T19:04:43.317Z,100678.06
2023-01-29T19:07:10.089Z,100678.22
2023-01-29T19:09:37.669Z,100681.13
2023-01-29T19:12:04.957Z,100675.96
2023-01-29T19:14:31.908Z,100670.30
2023-01-29T19:17:01.356Z,100672.57
2023-01-29T19:19:28.942Z,100674.48
2023-01-29T19:21:55.655Z,100678.98
2023-01-29T19:24:22.304Z,100674.70
2023-01-29T19:26:49.507Z,100680.04
2023-01-29T19:29:16.836Z,100682.67
2023-01-29T19:31:48.448Z,100686.46
2023-01-29T19:34:15.064Z,100688.39
2023-01-29T19:36:42.305Z,100689.63
2023-01-29T19:39:10.128Z,100688.66
2023-01-29T19:41:36.735Z,100690.25
2023-01-29T19:44:03.382Z,100685.98
2023-01-29T19:46:30.360Z,100689.45
2023-01-29T19:48:58.232Z,100686.24
2023-01-29T19:51:27.592Z,100690.61
2023-01-29T19:53:55.708Z,100689.27
2023-01-29T19:56:22.592Z,100688.41
2023-01-29T19:58:49.239Z,100687.92
2023-01-29T20:01:17.886Z,100689.85
2023-01-29T20:03:48.810Z,100689.38
2023-01-29T20:06:17.217Z,100689.59
2023-01-29T22:43:47.899Z,100668.55
2023-01-29T22:46:14.971Z,100668.24
2023-01-29T22:48:41.921Z,100670.20
2023-01-29T22:51:09.305Z,100658.64
2023-01-29T22:53:43.535Z,100661.77
2023-01-29T22:56:10.562Z,100662.51
2023-01-29T22:58:37.487Z,100662.58
2023-01-29T23:01:04.288Z,100658.17
2023-01-29T23:03:31.028Z,100659.08
2023-01-29T23:05:57.640Z,100664.09
2023-01-29T23:08:24.216Z,100663.81
2023-01-29T23:10:51.073Z,100661.10
2023-01-29T23:13:17.691Z,100656.20
2023-01-29T23:15:44.324Z,100657.11
2023-01-29T23:18:11.061Z,100654.95
2023-01-29T23:20:37.726Z,100651.08
2023-01-29T23:23:04.596Z,100648.04
2023-01-29T23:25:49.916Z,100647.77
2023-01-29T23:28:16.511Z,100645.63
2023-01-29T23:30:44.566Z,100641.73
2023-01-29T23:33:12.239Z,100634.42
2023-01-29T23:35:38.975Z,100635.17
2023-01-29T23:38:05.552Z,100631.30
2023-01-29T23:40:32.332Z,100628.09
2023-01-29T23:42:59.112Z,100626.28
2023-01-29T23:45:26.110Z,100618.47
2023-01-29T23:47:52.858Z,100620.08
2023-01-29T23:50:21.856Z,100619.50
2023-01-29T23:52:48.405Z,100617.39
2023-01-29T23:55:15.353Z,100622.45
2023-01-29T23:57:41.900Z,100626.17
